sensor_id;sensor_type;location;lat;lon;timestamp;temperature;humidity
56878;DHT22;42765;44.764;19.676;2022-09-13T06:34:49;16.00;99.90
56878;DHT22;42765;44.764;19.676;2022-09-13T06:37:15;16.20;99.90
56878;DHT22;42765;44.764;19.676;2022-09-13T06:39:40;16.10;99.90
56878;DHT22;42765;44.764;19.676;2022-09-13T06:42:06;16.20;99.90
56878;DHT22;42765;44.764;19.676;2022-09-13T07:06:30;16.10;99.90
56878;DHT22;42765;44.764;19.676;2022-09-13T07:08:58;17.20;99.90
56878;DHT22;42765;44.764;19.676;2022-09-13T07:11:24;17.20;99.90
56878;DHT22;42765;44.764;19.676;2022-09-13T07:13:51;17.30;99.90
56878;DHT22;42765;44.764;19.676;2022-09-13T07:16:17;17.40;99.90
56878;DHT22;42765;44.764;19.676;2022-09-13T07:18:43;17.50;99.90
56878;DHT22;42765;44.764;19.676;2022-09-13T07:21:10;17.70;99.90
56878;DHT22;42765;44.764;19.676;2022-09-13T07:23:36;17.80;99.90
56878;DHT22;42765;44.764;19.676;2022-09-13T07:26:02;18.00;99.90
56878;DHT22;42765;44.764;19.676;2022-09-13T07:28:39;18.00;99.90
56878;DHT22;42765;44.764;19.676;2022-09-13T07:31:13;18.10;99.90
56878;DHT22;42765;44.764;19.676;2022-09-13T07:33:39;18.20;99.90
56878;DHT22;42765;44.764;19.676;2022-09-13T07:36:06;18.40;99.90
56878;DHT22;42765;44.764;19.676;2022-09-13T07:38:32;18.40;99.90
56878;DHT22;42765;44.764;19.676;2022-09-13T07:40:58;18.60;99.90
56878;DHT22;42765;44.764;19.676;2022-09-13T07:43:24;18.80;99.90
56878;DHT22;42765;44.764;19.676;2022-09-13T07:45:59;18.90;99.90
56878;DHT22;42765;44.764;19.676;2022-09-13T07:48:26;19.10;99.90
56878;DHT22;42765;44.764;19.676;2022-09-13T07:53:24;19.20;99.90
56878;DHT22;42765;44.764;19.676;2022-09-13T07:55:49;19.20;99.90
56878;DHT22;42765;44.764;19.676;2022-09-13T07:58:15;19.40;99.90
56878;DHT22;42765;44.764;19.676;2022-09-13T08:00:40;19.60;99.90
56878;DHT22;42765;44.764;19.676;2022-09-13T08:03:06;19.70;99.90
56878;DHT22;42765;44.764;19.676;2022-09-13T08:05:32;19.50;99.90
56878;DHT22;42765;44.764;19.676;2022-09-13T08:08:10;19.60;99.90
56878;DHT22;42765;44.764;19.676;2022-09-13T08:10:37;19.70;99.90
56878;DHT22;42765;44.764;19.676;2022-09-13T08:13:03;20.10;99.90
56878;DHT22;42765;44.764;19.676;2022-09-13T08:15:29;20.10;99.90
56878;DHT22;42765;44.764;19.676;2022-09-13T08:17:54;20.20;99.90
56878;DHT22;42765;44.764;19.676;2022-09-13T08:20:20;20.30;99.90
56878;DHT22;42765;44.764;19.676;2022-09-13T08:22:47;20.40;99.90
56878;DHT22;42765;44.764;19.676;2022-09-13T08:25:12;20.50;99.90
56878;DHT22;42765;44.764;19.676;2022-09-13T08:27:38;20.60;99.90
56878;DHT22;42765;44.764;19.676;2022-09-13T08:30:04;20.70;99.90
56878;DHT22;42765;44.764;19.676;2022-09-13T08:32:30;20.90;99.90
56878;DHT22;42765;44.764;19.676;2022-09-13T08:34:56;21.00;99.90
56878;DHT22;42765;44.764;19.676;2022-09-13T08:37:22;21.30;99.90
56878;DHT22;42765;44.764;19.676;2022-09-13T08:39:48;21.40;99.90
56878;DHT22;42765;44.764;19.676;2022-09-13T08:42:16;21.60;99.90
56878;DHT22;42765;44.764;19.676;2022-09-13T08:44:44;21.70;99.90
56878;DHT22;42765;44.764;19.676;2022-09-13T08:49:42;22.00;99.90
56878;DHT22;42765;44.764;19.676;2022-09-13T08:54:37;22.10;99.90
56878;DHT22;42765;44.764;19.676;2022-09-13T08:57:07;22.20;99.90
56878;DHT22;42765;44.764;19.676;2022-09-13T09:02:26;22.40;99.90
56878;DHT22;42765;44.764;19.676;2022-09-13T09:05:02;22.40;99.90
56878;DHT22;42765;44.764;19.676;2022-09-13T09:07:33;22.50;99.90
56878;DHT22;42765;44.764;19.676;2022-09-13T09:10:21;22.60;99.90
56878;DHT22;42765;44.764;19.676;2022-09-13T09:15:23;22.90;99.90
56878;DHT22;42765;44.764;19.676;2022-09-13T09:20:38;23.10;99.90
56878;DHT22;42765;44.764;19.676;2022-09-13T09:23:27;23.40;99.90
56878;DHT22;42765;44.764;19.676;2022-09-13T09:26:12;23.50;99.90
56878;DHT22;42765;44.764;19.676;2022-09-13T09:28:37;23.00;99.90
56878;DHT22;42765;44.764;19.676;2022-09-13T09:31:04;23.00;99.90
56878;DHT22;42765;44.764;19.676;2022-09-13T09:36:06;23.40;99.90
56878;DHT22;42765;44.764;19.676;2022-09-13T09:38:38;23.50;99.90
56878;DHT22;42765;44.764;19.676;2022-09-13T09:41:09;23.70;99.90
56878;DHT22;42765;44.764;19.676;2022-09-13T09:43:40;23.70;99.90
56878;DHT22;42765;44.764;19.676;2022-09-13T09:46:07;23.70;99.90
56878;DHT22;42765;44.764;19.676;2022-09-13T09:48:42;23.90;99.90
56878;DHT22;42765;44.764;19.676;2022-09-13T09:51:08;24.10;99.90
56878;DHT22;42765;44.764;19.676;2022-09-13T09:53:37;24.20;99.90
56878;DHT22;42765;44.764;19.676;2022-09-13T09:56:22;24.30;99.90
56878;DHT22;42765;44.764;19.676;2022-09-13T09:58:49;24.40;99.90
56878;DHT22;42765;44.764;19.676;2022-09-13T10:01:19;24.50;99.90
56878;DHT22;42765;44.764;19.676;2022-09-13T10:03:50;24.60;99.90
56878;DHT22;42765;44.764;19.676;2022-09-13T10:06:20;24.90;99.90
56878;DHT22;42765;44.764;19.676;2022-09-13T10:08:57;24.90;99.90
56878;DHT22;42765;44.764;19.676;2022-09-13T10:11:44;25.00;99.90
56878;DHT22;42765;44.764;19.676;2022-09-13T10:17:16;25.40;99.90
56878;DHT22;42765;44.764;19.676;2022-09-13T10:19:53;25.70;99.90
56878;DHT22;42765;44.764;19.676;2022-09-13T10:22:19;26.00;99.90
56878;DHT22;42765;44.764;19.676;2022-09-13T10:24:46;27.00;99.90
56878;DHT22;42765;44.764;19.676;2022-09-13T10:27:19;26.60;99.90
56878;DHT22;42765;44.764;19.676;2022-09-13T10:29:47;26.60;99.40
56878;DHT22;42765;44.764;19.676;2022-09-13T10:32:15;26.90;99.90
56878;DHT22;42765;44.764;19.676;2022-09-13T10:34:44;26.60;99.20
56878;DHT22;42765;44.764;19.676;2022-09-13T10:37:24;26.60;99.90
56878;DHT22;42765;44.764;19.676;2022-09-13T10:40:51;28.50;98.80
56878;DHT22;42765;44.764;19.676;2022-09-13T10:43:04;28.60;98.60
56878;DHT22;42765;44.764;19.676;2022-09-13T10:45:32;29.10;96.10
56878;DHT22;42765;44.764;19.676;2022-09-13T10:48:09;29.40;94.20
56878;DHT22;42765;44.764;19.676;2022-09-13T10:50:36;30.10;94.30
56878;DHT22;42765;44.764;19.676;2022-09-13T10:53:02;31.00;92.20
56878;DHT22;42765;44.764;19.676;2022-09-13T10:55:36;31.10;91.20
56878;DHT22;42765;44.764;19.676;2022-09-13T11:10:45;34.20;76.50
56878;DHT22;42765;44.764;19.676;2022-09-13T11:13:15;33.90;74.30
56878;DHT22;42765;44.764;19.676;2022-09-13T11:15:48;34.40;73.90
56878;DHT22;42765;44.764;19.676;2022-09-13T11:18:23;34.40;75.90
56878;DHT22;42765;44.764;19.676;2022-09-13T11:23:39;35.00;73.30
56878;DHT22;42765;44.764;19.676;2022-09-13T11:33:38;36.10;66.60
56878;DHT22;42765;44.764;19.676;2022-09-13T11:36:11;36.20;68.70
56878;DHT22;42765;44.764;19.676;2022-09-13T11:38:48;36.10;65.40
56878;DHT22;42765;44.764;19.676;2022-09-13T11:41:21;36.00;67.10
56878;DHT22;42765;44.764;19.676;2022-09-13T11:46:26;35.70;66.70
56878;DHT22;42765;44.764;19.676;2022-09-13T11:56:20;37.30;63.80
56878;DHT22;42765;44.764;19.676;2022-09-13T12:01:15;37.80;63.60
56878;DHT22;42765;44.764;19.676;2022-09-13T12:03:55;37.80;60.70
56878;DHT22;42765;44.764;19.676;2022-09-13T12:06:24;38.30;61.10
56878;DHT22;42765;44.764;19.676;2022-09-13T12:08:54;37.90;59.90
56878;DHT22;42765;44.764;19.676;2022-09-13T12:11:32;39.00;59.90
56878;DHT22;42765;44.764;19.676;2022-09-13T12:14:00;39.30;58.70
56878;DHT22;42765;44.764;19.676;2022-09-13T12:18:55;39.50;58.70
56878;DHT22;42765;44.764;19.676;2022-09-13T12:21:28;39.50;59.70
56878;DHT22;42765;44.764;19.676;2022-09-13T12:34:03;37.70;56.20
56878;DHT22;42765;44.764;19.676;2022-09-13T12:49:24;38.50;57.70
56878;DHT22;42765;44.764;19.676;2022-09-13T12:54:21;38.40;57.60
56878;DHT22;42765;44.764;19.676;2022-09-13T12:59:41;39.50;57.10
56878;DHT22;42765;44.764;19.676;2022-09-13T13:04:55;35.40;60.80
56878;DHT22;42765;44.764;19.676;2022-09-13T13:07:22;35.00;61.50
56878;DHT22;42765;44.764;19.676;2022-09-13T13:09:50;34.50;62.80
56878;DHT22;42765;44.764;19.676;2022-09-13T13:12:26;31.80;63.00
56878;DHT22;42765;44.764;19.676;2022-09-13T13:14:52;32.10;64.40
56878;DHT22;42765;44.764;19.676;2022-09-13T13:22:50;30.10;71.20
56878;DHT22;42765;44.764;19.676;2022-09-13T13:25:29;33.50;68.20
56878;DHT22;42765;44.764;19.676;2022-09-13T13:27:55;33.90;67.50
56878;DHT22;42765;44.764;19.676;2022-09-13T13:30:39;35.10;63.20
56878;DHT22;42765;44.764;19.676;2022-09-13T13:33:12;36.80;62.70
56878;DHT22;42765;44.764;19.676;2022-09-13T13:35:39;37.80;60.50
56878;DHT22;42765;44.764;19.676;2022-09-13T13:40:49;37.40;61.40
56878;DHT22;42765;44.764;19.676;2022-09-13T13:43:32;36.90;60.40
56878;DHT22;42765;44.764;19.676;2022-09-13T13:46:43;36.30;60.80
56878;DHT22;42765;44.764;19.676;2022-09-13T13:48:45;35.80;63.40
56878;DHT22;42765;44.764;19.676;2022-09-13T13:53:36;36.30;61.50
56878;DHT22;42765;44.764;19.676;2022-09-13T13:56:07;37.00;61.20
56878;DHT22;42765;44.764;19.676;2022-09-13T13:58:44;37.40;62.30
56878;DHT22;42765;44.764;19.676;2022-09-13T14:01:27;38.50;58.30
56878;DHT22;42765;44.764;19.676;2022-09-13T14:03:58;38.00;60.10
56878;DHT22;42765;44.764;19.676;2022-09-13T14:06:32;39.10;58.60
56878;DHT22;42765;44.764;19.676;2022-09-13T14:11:50;39.20;58.40
56878;DHT22;42765;44.764;19.676;2022-09-13T14:22:13;32.80;64.00
56878;DHT22;42765;44.764;19.676;2022-09-13T14:24:40;31.80;65.40
56878;DHT22;42765;44.764;19.676;2022-09-13T14:27:12;31.00;65.80
56878;DHT22;42765;44.764;19.676;2022-09-13T14:29:38;30.50;69.20
56878;DHT22;42765;44.764;19.676;2022-09-13T14:32:05;30.30;71.30
56878;DHT22;42765;44.764;19.676;2022-09-13T14:34:33;29.60;72.90
56878;DHT22;42765;44.764;19.676;2022-09-13T14:37:01;29.40;73.80
56878;DHT22;42765;44.764;19.676;2022-09-13T14:39:26;29.00;73.00
56878;DHT22;42765;44.764;19.676;2022-09-13T14:41:59;29.60;71.10
56878;DHT22;42765;44.764;19.676;2022-09-13T14:44:26;29.00;72.20
56878;DHT22;42765;44.764;19.676;2022-09-13T14:46:57;28.80;73.60
56878;DHT22;42765;44.764;19.676;2022-09-13T14:49:24;28.60;73.30
56878;DHT22;42765;44.764;19.676;2022-09-13T14:52:01;28.20;74.00
56878;DHT22;42765;44.764;19.676;2022-09-13T14:54:43;28.10;76.10
56878;DHT22;42765;44.764;19.676;2022-09-13T14:57:21;27.90;76.20
56878;DHT22;42765;44.764;19.676;2022-09-13T14:59:52;27.80;77.40
56878;DHT22;42765;44.764;19.676;2022-09-13T15:02:24;27.80;78.00
56878;DHT22;42765;44.764;19.676;2022-09-13T15:04:54;27.60;76.70
56878;DHT22;42765;44.764;19.676;2022-09-13T15:09:46;27.70;75.00
56878;DHT22;42765;44.764;19.676;2022-09-13T15:13:12;27.50;76.30
56878;DHT22;42765;44.764;19.676;2022-09-13T15:15:20;27.50;76.20
56878;DHT22;42765;44.764;19.676;2022-09-13T15:17:53;27.40;77.90
56878;DHT22;42765;44.764;19.676;2022-09-13T15:20:19;27.30;78.40
56878;DHT22;42765;44.764;19.676;2022-09-13T15:22:46;27.20;79.20
56878;DHT22;42765;44.764;19.676;2022-09-13T15:25:17;27.20;79.80
56878;DHT22;42765;44.764;19.676;2022-09-13T15:27:44;27.20;81.10
56878;DHT22;42765;44.764;19.676;2022-09-13T15:30:25;27.20;79.10
56878;DHT22;42765;44.764;19.676;2022-09-13T15:35:33;27.00;79.40
56878;DHT22;42765;44.764;19.676;2022-09-13T15:38:00;26.80;82.00
56878;DHT22;42765;44.764;19.676;2022-09-13T15:40:27;26.70;82.30
56878;DHT22;42765;44.764;19.676;2022-09-13T15:42:53;26.50;82.80
56878;DHT22;42765;44.764;19.676;2022-09-13T15:45:20;26.20;83.00
56878;DHT22;42765;44.764;19.676;2022-09-13T15:47:47;26.10;85.40
56878;DHT22;42765;44.764;19.676;2022-09-13T15:50:34;25.90;85.80
56878;DHT22;42765;44.764;19.676;2022-09-13T15:53:01;25.70;85.40
56878;DHT22;42765;44.764;19.676;2022-09-13T15:55:27;25.50;86.40
56878;DHT22;42765;44.764;19.676;2022-09-13T15:57:53;25.40;87.70
56878;DHT22;42765;44.764;19.676;2022-09-13T16:00:20;25.30;87.10
56878;DHT22;42765;44.764;19.676;2022-09-13T16:02:46;25.20;87.10
56878;DHT22;42765;44.764;19.676;2022-09-13T16:05:12;25.10;87.10
56878;DHT22;42765;44.764;19.676;2022-09-13T16:07:38;25.00;88.90
56878;DHT22;42765;44.764;19.676;2022-09-13T16:10:37;24.90;89.40
56878;DHT22;42765;44.764;19.676;2022-09-13T16:12:56;24.80;90.00
56878;DHT22;42765;44.764;19.676;2022-09-13T16:15:22;24.70;90.60
56878;DHT22;42765;44.764;19.676;2022-09-13T16:17:48;24.50;90.30
56878;DHT22;42765;44.764;19.676;2022-09-13T16:20:14;24.40;90.30
56878;DHT22;42765;44.764;19.676;2022-09-13T16:22:40;24.30;90.40
56878;DHT22;42765;44.764;19.676;2022-09-13T16:25:06;24.20;90.80
56878;DHT22;42765;44.764;19.676;2022-09-13T16:27:32;24.10;91.60
56878;DHT22;42765;44.764;19.676;2022-09-13T16:29:59;24.00;91.70
56878;DHT22;42765;44.764;19.676;2022-09-13T16:32:25;23.90;91.80
56878;DHT22;42765;44.764;19.676;2022-09-13T16:34:51;23.90;91.60
56878;DHT22;42765;44.764;19.676;2022-09-13T16:37:17;23.80;92.20
56878;DHT22;42765;44.764;19.676;2022-09-13T16:39:43;23.80;92.60
56878;DHT22;42765;44.764;19.676;2022-09-13T16:42:10;23.70;92.60
56878;DHT22;42765;44.764;19.676;2022-09-13T16:44:36;23.70;93.40
56878;DHT22;42765;44.764;19.676;2022-09-13T16:47:01;23.60;93.40
56878;DHT22;42765;44.764;19.676;2022-09-13T16:49:27;23.50;93.80
56878;DHT22;42765;44.764;19.676;2022-09-13T16:51:53;23.40;93.60
56878;DHT22;42765;44.764;19.676;2022-09-13T16:54:19;23.30;93.60
56878;DHT22;42765;44.764;19.676;2022-09-13T16:56:44;23.30;93.70
56878;DHT22;42765;44.764;19.676;2022-09-13T16:59:10;23.20;93.60
56878;DHT22;42765;44.764;19.676;2022-09-13T17:01:36;23.10;93.90
56878;DHT22;42765;44.764;19.676;2022-09-13T17:04:01;23.10;94.50
56878;DHT22;42765;44.764;19.676;2022-09-13T17:06:27;23.00;94.90
56878;DHT22;42765;44.764;19.676;2022-09-13T17:08:55;22.90;95.00
56878;DHT22;42765;44.764;19.676;2022-09-13T17:11:22;22.90;95.00
56878;DHT22;42765;44.764;19.676;2022-09-13T17:13:48;22.70;95.90
56878;DHT22;42765;44.764;19.676;2022-09-13T17:16:22;22.60;96.30
56878;DHT22;42765;44.764;19.676;2022-09-13T17:18:48;22.50;97.50
56878;DHT22;42765;44.764;19.676;2022-09-13T17:21:13;22.40;96.90
56878;DHT22;42765;44.764;19.676;2022-09-13T17:23:39;22.40;97.20
56878;DHT22;42765;44.764;19.676;2022-09-13T17:26:05;22.30;96.90
56878;DHT22;42765;44.764;19.676;2022-09-13T17:28:30;22.30;96.90
56878;DHT22;42765;44.764;19.676;2022-09-13T17:30:56;22.30;98.20
56878;DHT22;42765;44.764;19.676;2022-09-13T17:33:22;22.20;98.30
56878;DHT22;42765;44.764;19.676;2022-09-13T17:35:56;22.20;98.60
56878;DHT22;42765;44.764;19.676;2022-09-13T17:38:22;22.10;98.80
56878;DHT22;42765;44.764;19.676;2022-09-13T17:40:56;22.10;99.70
56878;DHT22;42765;44.764;19.676;2022-09-13T17:43:22;22.00;99.90
56878;DHT22;42765;44.764;19.676;2022-09-13T17:45:48;21.90;99.90
56878;DHT22;42765;44.764;19.676;2022-09-13T17:48:14;21.90;99.90
56878;DHT22;42765;44.764;19.676;2022-09-13T17:50:39;21.80;99.90
56878;DHT22;42765;44.764;19.676;2022-09-13T17:53:05;21.80;99.90
56878;DHT22;42765;44.764;19.676;2022-09-13T17:55:30;21.70;99.90
56878;DHT22;42765;44.764;19.676;2022-09-13T17:57:56;21.70;99.90
56878;DHT22;42765;44.764;19.676;2022-09-13T18:00:22;21.60;99.90
56878;DHT22;42765;44.764;19.676;2022-09-13T18:02:47;21.60;99.90
56878;DHT22;42765;44.764;19.676;2022-09-13T18:05:13;21.50;99.90
56878;DHT22;42765;44.764;19.676;2022-09-13T18:07:39;21.40;99.90
56878;DHT22;42765;44.764;19.676;2022-09-13T18:10:04;21.30;99.90
56878;DHT22;42765;44.764;19.676;2022-09-13T18:12:31;21.30;99.90
56878;DHT22;42765;44.764;19.676;2022-09-13T18:14:56;21.20;99.90
56878;DHT22;42765;44.764;19.676;2022-09-13T18:17:22;21.20;99.90
56878;DHT22;42765;44.764;19.676;2022-09-13T18:19:48;21.20;99.90
56878;DHT22;42765;44.764;19.676;2022-09-13T18:22:13;21.20;99.90
56878;DHT22;42765;44.764;19.676;2022-09-13T18:24:39;21.10;99.90
56878;DHT22;42765;44.764;19.676;2022-09-13T18:27:05;21.10;99.90
56878;DHT22;42765;44.764;19.676;2022-09-13T18:29:31;21.10;99.90
56878;DHT22;42765;44.764;19.676;2022-09-13T18:31:57;21.10;99.90
56878;DHT22;42765;44.764;19.676;2022-09-13T18:34:23;21.10;99.90
56878;DHT22;42765;44.764;19.676;2022-09-13T18:36:49;21.10;99.90
56878;DHT22;42765;44.764;19.676;2022-09-13T18:39:18;21.00;99.90
56878;DHT22;42765;44.764;19.676;2022-09-13T18:41:44;20.90;99.90
56878;DHT22;42765;44.764;19.676;2022-09-13T18:44:11;20.90;99.90
56878;DHT22;42765;44.764;19.676;2022-09-13T18:46:37;20.90;99.90
56878;DHT22;42765;44.764;19.676;2022-09-13T18:49:03;20.80;99.90
56878;DHT22;42765;44.764;19.676;2022-09-13T18:51:30;20.70;99.90
56878;DHT22;42765;44.764;19.676;2022-09-13T18:53:56;20.50;99.90
56878;DHT22;42765;44.764;19.676;2022-09-13T18:56:23;20.50;99.90
56878;DHT22;42765;44.764;19.676;2022-09-13T18:58:49;20.40;99.90
56878;DHT22;42765;44.764;19.676;2022-09-13T19:01:19;20.40;99.90
56878;DHT22;42765;44.764;19.676;2022-09-13T19:03:46;20.30;99.90
56878;DHT22;42765;44.764;19.676;2022-09-13T19:06:46;20.30;99.90
56878;DHT22;42765;44.764;19.676;2022-09-13T19:09:04;20.30;99.90
56878;DHT22;42765;44.764;19.676;2022-09-13T19:11:31;20.30;99.90
56878;DHT22;42765;44.764;19.676;2022-09-13T19:13:57;20.30;99.90
56878;DHT22;42765;44.764;19.676;2022-09-13T19:16:22;20.30;99.90
56878;DHT22;42765;44.764;19.676;2022-09-13T19:18:50;20.20;99.90
56878;DHT22;42765;44.764;19.676;2022-09-13T19:21:17;20.20;99.90
56878;DHT22;42765;44.764;19.676;2022-09-13T19:23:44;20.20;99.90
56878;DHT22;42765;44.764;19.676;2022-09-13T19:26:11;20.10;99.90
56878;DHT22;42765;44.764;19.676;2022-09-13T19:28:37;20.10;99.90
56878;DHT22;42765;44.764;19.676;2022-09-13T19:31:07;20.00;99.90
56878;DHT22;42765;44.764;19.676;2022-09-13T19:33:34;19.90;99.90
56878;DHT22;42765;44.764;19.676;2022-09-13T19:36:01;19.90;99.90
56878;DHT22;42765;44.764;19.676;2022-09-13T19:38:28;19.90;99.90
56878;DHT22;42765;44.764;19.676;2022-09-13T19:40:54;19.90;99.90
56878;DHT22;42765;44.764;19.676;2022-09-13T19:43:19;19.80;99.90
56878;DHT22;42765;44.764;19.676;2022-09-13T19:45:53;19.80;99.90
56878;DHT22;42765;44.764;19.676;2022-09-13T19:48:19;19.80;99.90
56878;DHT22;42765;44.764;19.676;2022-09-13T19:50:44;19.70;99.90
56878;DHT22;42765;44.764;19.676;2022-09-13T19:53:10;19.70;99.90
56878;DHT22;42765;44.764;19.676;2022-09-13T19:55:40;19.70;99.90
56878;DHT22;42765;44.764;19.676;2022-09-13T19:58:08;19.60;99.90
56878;DHT22;42765;44.764;19.676;2022-09-13T20:00:34;19.60;99.90
56878;DHT22;42765;44.764;19.676;2022-09-13T20:03:00;19.50;99.90
56878;DHT22;42765;44.764;19.676;2022-09-13T20:05:25;19.50;99.90
56878;DHT22;42765;44.764;19.676;2022-09-13T20:07:51;19.40;99.90
56878;DHT22;42765;44.764;19.676;2022-09-13T20:10:17;19.40;99.90
56878;DHT22;42765;44.764;19.676;2022-09-13T20:12:43;19.40;99.90
56878;DHT22;42765;44.764;19.676;2022-09-13T20:15:08;19.30;99.90
56878;DHT22;42765;44.764;19.676;2022-09-13T20:17:34;19.30;99.90
56878;DHT22;42765;44.764;19.676;2022-09-13T20:20:00;19.30;99.90
56878;DHT22;42765;44.764;19.676;2022-09-13T20:22:26;19.20;99.90
56878;DHT22;42765;44.764;19.676;2022-09-13T20:24:51;19.20;99.90
56878;DHT22;42765;44.764;19.676;2022-09-13T20:27:18;19.10;99.90
56878;DHT22;42765;44.764;19.676;2022-09-13T20:29:44;19.10;99.90
56878;DHT22;42765;44.764;19.676;2022-09-13T20:32:09;19.10;99.90
56878;DHT22;42765;44.764;19.676;2022-09-13T20:34:35;19.00;99.90
56878;DHT22;42765;44.764;19.676;2022-09-13T20:37:02;19.10;99.90
56878;DHT22;42765;44.764;19.676;2022-09-13T20:39:27;19.10;99.90
56878;DHT22;42765;44.764;19.676;2022-09-13T20:41:53;19.10;99.90
56878;DHT22;42765;44.764;19.676;2022-09-13T20:44:19;19.00;99.90
56878;DHT22;42765;44.764;19.676;2022-09-13T20:46:44;19.00;99.90
56878;DHT22;42765;44.764;19.676;2022-09-13T20:49:10;18.90;99.90
56878;DHT22;42765;44.764;19.676;2022-09-13T20:51:36;18.90;99.90
56878;DHT22;42765;44.764;19.676;2022-09-13T20:54:02;18.80;99.90
56878;DHT22;42765;44.764;19.676;2022-09-13T20:56:29;18.80;99.90
56878;DHT22;42765;44.764;19.676;2022-09-13T20:58:58;18.80;99.90
56878;DHT22;42765;44.764;19.676;2022-09-13T21:01:25;18.80;99.90
56878;DHT22;42765;44.764;19.676;2022-09-13T21:03:51;18.80;99.90
56878;DHT22;42765;44.764;19.676;2022-09-13T21:06:18;18.70;99.90
56878;DHT22;42765;44.764;19.676;2022-09-13T21:08:44;18.70;99.90
56878;DHT22;42765;44.764;19.676;2022-09-13T21:11:14;18.70;99.90
56878;DHT22;42765;44.764;19.676;2022-09-13T21:13:41;18.70;99.90
56878;DHT22;42765;44.764;19.676;2022-09-13T21:16:11;18.70;99.90
56878;DHT22;42765;44.764;19.676;2022-09-13T21:18:37;18.60;99.90
56878;DHT22;42765;44.764;19.676;2022-09-13T21:21:04;18.70;99.90
56878;DHT22;42765;44.764;19.676;2022-09-13T21:23:30;18.60;99.90
56878;DHT22;42765;44.764;19.676;2022-09-13T21:26:03;18.60;99.90
56878;DHT22;42765;44.764;19.676;2022-09-13T21:28:30;18.60;99.90
56878;DHT22;42765;44.764;19.676;2022-09-13T21:30:57;18.60;99.90
56878;DHT22;42765;44.764;19.676;2022-09-13T21:33:24;18.60;99.90
56878;DHT22;42765;44.764;19.676;2022-09-13T21:35:56;18.50;99.90
56878;DHT22;42765;44.764;19.676;2022-09-13T21:38:25;18.60;99.90
56878;DHT22;42765;44.764;19.676;2022-09-13T21:41:02;18.60;99.90
56878;DHT22;42765;44.764;19.676;2022-09-13T21:43:28;18.50;99.90
56878;DHT22;42765;44.764;19.676;2022-09-13T21:46:14;18.50;99.90
56878;DHT22;42765;44.764;19.676;2022-09-13T21:48:40;18.50;99.90
56878;DHT22;42765;44.764;19.676;2022-09-13T21:51:14;18.50;99.90
56878;DHT22;42765;44.764;19.676;2022-09-13T21:53:40;18.50;99.90
56878;DHT22;42765;44.764;19.676;2022-09-13T21:56:07;18.50;99.90
56878;DHT22;42765;44.764;19.676;2022-09-13T21:58:33;18.40;99.90
56878;DHT22;42765;44.764;19.676;2022-09-13T22:01:03;18.40;99.90
56878;DHT22;42765;44.764;19.676;2022-09-13T22:03:30;18.40;99.90
56878;DHT22;42765;44.764;19.676;2022-09-13T22:05:56;18.40;99.90
56878;DHT22;42765;44.764;19.676;2022-09-13T22:08:22;18.40;99.90
56878;DHT22;42765;44.764;19.676;2022-09-13T22:10:48;18.40;99.90
56878;DHT22;42765;44.764;19.676;2022-09-13T22:13:13;18.30;99.90
56878;DHT22;42765;44.764;19.676;2022-09-13T22:15:39;18.30;99.90
56878;DHT22;42765;44.764;19.676;2022-09-13T22:18:05;18.30;99.90
56878;DHT22;42765;44.764;19.676;2022-09-13T22:20:33;18.30;99.90
56878;DHT22;42765;44.764;19.676;2022-09-13T22:22:59;18.20;99.90
56878;DHT22;42765;44.764;19.676;2022-09-13T22:25:24;18.20;99.90
56878;DHT22;42765;44.764;19.676;2022-09-13T22:27:50;18.20;99.90
56878;DHT22;42765;44.764;19.676;2022-09-13T22:30:16;18.10;99.90
56878;DHT22;42765;44.764;19.676;2022-09-13T22:32:42;18.10;99.90
56878;DHT22;42765;44.764;19.676;2022-09-13T22:35:08;18.10;99.90
56878;DHT22;42765;44.764;19.676;2022-09-13T22:37:36;18.10;99.90
56878;DHT22;42765;44.764;19.676;2022-09-13T22:40:02;18.10;99.90
56878;DHT22;42765;44.764;19.676;2022-09-13T22:42:29;18.10;99.90
56878;DHT22;42765;44.764;19.676;2022-09-13T22:44:54;18.00;99.90
56878;DHT22;42765;44.764;19.676;2022-09-13T22:47:20;18.00;99.90
56878;DHT22;42765;44.764;19.676;2022-09-13T22:49:46;18.00;99.90
56878;DHT22;42765;44.764;19.676;2022-09-13T22:52:12;18.00;99.90
56878;DHT22;42765;44.764;19.676;2022-09-13T22:54:37;17.90;99.90
56878;DHT22;42765;44.764;19.676;2022-09-13T22:57:06;17.90;99.90
56878;DHT22;42765;44.764;19.676;2022-09-13T22:59:32;17.80;99.90
56878;DHT22;42765;44.764;19.676;2022-09-13T23:01:57;17.80;99.90
56878;DHT22;42765;44.764;19.676;2022-09-13T23:04:23;17.80;99.90
56878;DHT22;42765;44.764;19.676;2022-09-13T23:06:49;17.80;99.90
56878;DHT22;42765;44.764;19.676;2022-09-13T23:09:16;17.70;99.90
56878;DHT22;42765;44.764;19.676;2022-09-13T23:11:42;17.70;99.90
56878;DHT22;42765;44.764;19.676;2022-09-13T23:16:52;17.70;99.90
56878;DHT22;42765;44.764;19.676;2022-09-13T23:19:19;17.60;99.90
56878;DHT22;42765;44.764;19.676;2022-09-13T23:21:46;17.70;99.90
56878;DHT22;42765;44.764;19.676;2022-09-13T23:24:13;17.60;99.90
56878;DHT22;42765;44.764;19.676;2022-09-13T23:26:39;17.60;99.90
56878;DHT22;42765;44.764;19.676;2022-09-13T23:29:05;17.50;99.90
56878;DHT22;42765;44.764;19.676;2022-09-13T23:31:32;17.50;99.90
56878;DHT22;42765;44.764;19.676;2022-09-13T23:34:00;17.50;99.90
56878;DHT22;42765;44.764;19.676;2022-09-13T23:36:27;17.40;99.90
56878;DHT22;42765;44.764;19.676;2022-09-13T23:41:19;17.40;99.90
56878;DHT22;42765;44.764;19.676;2022-09-13T23:43:45;17.40;99.90
56878;DHT22;42765;44.764;19.676;2022-09-13T23:46:11;17.40;99.90
56878;DHT22;42765;44.764;19.676;2022-09-13T23:48:37;17.40;99.90
56878;DHT22;42765;44.764;19.676;2022-09-13T23:51:04;17.40;99.90
56878;DHT22;42765;44.764;19.676;2022-09-13T23:53:30;17.40;99.90
56878;DHT22;42765;44.764;19.676;2022-09-13T23:55:56;17.40;99.90
56878;DHT22;42765;44.764;19.676;2022-09-13T23:58:22;17.40;99.90
